Time;durP1;ratioP1;P1;durP2;ratioP2;P2;SDS_P1;SDS_P2;PMS_P1;PMS_P2;Temp;Humidity;BMP_temperature;BMP_pressure;BME280_temperature;BME280_humidity;BME280_pressure;Samples;Min_cycle;Max_cycle;Signal;HPM_P1;HPM_P2
2022/05/07 00:01:05;;;;;;;1.50;1.40;;;12.30;65.10;;;;;;5013634;28;20037;-80
2022/05/07 00:03:30;;;;;;;2.83;1.35;;;12.30;65.10;;;;;;5009022;28;20093;-80
2022/05/07 00:05:56;;;;;;;1.92;1.40;;;12.20;65.20;;;;;;5003587;28;20046;-80
2022/05/07 00:08:21;;;;;;;1.52;1.20;;;12.20;65.40;;;;;;5007451;28;20030;-80
2022/05/07 00:10:47;;;;;;;2.30;1.60;;;12.10;65.50;;;;;;4995078;28;20030;-80
2022/05/07 00:13:13;;;;;;;2.58;1.40;;;12.10;65.60;;;;;;4994808;28;20037;-80
2022/05/07 00:15:39;;;;;;;1.60;1.30;;;12.10;65.60;;;;;;5013899;28;20076;-80
2022/05/07 00:18:06;;;;;;;3.38;1.50;;;12.10;65.60;;;;;;4993375;28;20068;-80
2022/05/07 00:20:32;;;;;;;1.45;1.30;;;12.10;65.70;;;;;;5003751;28;20041;-80
2022/05/07 00:22:58;;;;;;;2.40;1.40;;;12.00;65.70;;;;;;5004716;28;20042;-79
2022/05/07 00:25:27;;;;;;;3.28;1.30;;;12.00;65.80;;;;;;4993862;28;20050;-80
2022/05/07 00:27:52;;;;;;;4.22;1.50;;;11.90;65.90;;;;;;4969849;28;20025;-80
2022/05/07 00:30:18;;;;;;;4.72;1.55;;;11.90;66.10;;;;;;4992538;28;20088;-80
2022/05/07 00:32:43;;;;;;;3.80;1.60;;;11.90;66.10;;;;;;4990936;28;20037;-80
2022/05/07 00:35:10;;;;;;;1.55;1.42;;;11.80;66.20;;;;;;4992075;28;20061;-80
2022/05/07 00:37:36;;;;;;;3.28;1.63;;;11.80;66.30;;;;;;5007693;28;20041;-80
2022/05/07 00:40:03;;;;;;;3.58;1.83;;;11.80;66.40;;;;;;4994442;28;20029;-79
2022/05/07 00:42:28;;;;;;;2.28;1.33;;;11.80;66.40;;;;;;4992990;28;20548;-79
2022/05/07 00:44:54;;;;;;;4.30;2.38;;;11.80;66.50;;;;;;5005863;28;20040;-80
2022/05/07 00:47:24;;;;;;;2.63;1.70;;;11.70;66.60;;;;;;5003465;28;20029;-79
2022/05/07 00:49:52;;;;;;;1.70;1.60;;;11.70;66.80;;;;;;4986424;28;20033;-79
2022/05/07 00:52:20;;;;;;;3.17;1.70;;;11.70;66.60;;;;;;4990198;28;20465;-80
2022/05/07 00:54:46;;;;;;;1.70;1.60;;;11.60;66.80;;;;;;5005064;28;20487;-80
2022/05/07 00:57:15;;;;;;;3.25;1.98;;;11.60;66.90;;;;;;4982952;28;20117;-80
2022/05/07 00:59:41;;;;;;;2.65;1.50;;;11.60;67.10;;;;;;5007278;28;20732;-80
2022/05/07 01:02:07;;;;;;;1.88;1.52;;;11.50;67.10;;;;;;5007324;28;20450;-79
2022/05/07 01:04:32;;;;;;;2.88;1.58;;;11.50;67.30;;;;;;5000970;28;20056;-79
2022/05/07 01:06:58;;;;;;;3.78;1.63;;;11.50;67.40;;;;;;4986484;28;20034;-79
2022/05/07 01:09:24;;;;;;;2.65;1.70;;;11.40;67.50;;;;;;5003079;28;20037;-80
2022/05/07 01:11:50;;;;;;;1.60;1.38;;;11.40;67.50;;;;;;5005171;28;20034;-80
2022/05/07 01:14:15;;;;;;;5.30;1.85;;;11.40;67.70;;;;;;4987167;28;20088;-79
2022/05/07 01:16:41;;;;;;;2.67;1.58;;;11.30;67.60;;;;;;4992299;28;20037;-79
2022/05/07 01:19:07;;;;;;;5.00;1.92;;;11.30;67.70;;;;;;4997321;28;20057;-79
2022/05/07 01:21:32;;;;;;;2.60;1.85;;;11.30;67.80;;;;;;5007332;28;20064;-79
2022/05/07 01:23:59;;;;;;;1.90;1.50;;;11.30;67.90;;;;;;4993421;28;20034;-80
2022/05/07 01:26:25;;;;;;;2.05;1.58;;;11.30;67.90;;;;;;4979820;28;20042;-80
2022/05/07 01:28:51;;;;;;;4.78;2.70;;;11.30;68.00;;;;;;4985658;28;20097;-80
2022/05/07 01:31:18;;;;;;;1.92;1.67;;;11.20;67.90;;;;;;4987195;28;20108;-81
2022/05/07 01:33:43;;;;;;;3.58;1.50;;;11.20;68.00;;;;;;4975205;28;20109;-80
2022/05/07 01:36:16;;;;;;;1.55;1.40;;;11.10;68.10;;;;;;4977582;28;20121;-78
2022/05/07 01:38:41;;;;;;;4.38;2.35;;;11.10;68.20;;;;;;5006833;28;20123;-80
2022/05/07 01:41:07;;;;;;;3.88;1.65;;;11.00;68.30;;;;;;5002700;28;20488;-78
2022/05/07 01:43:32;;;;;;;2.60;1.80;;;11.00;68.30;;;;;;5011926;28;20539;-81
2022/05/07 01:46:01;;;;;;;1.40;1.30;;;10.90;68.50;;;;;;4965273;28;20042;-78
2022/05/07 01:48:27;;;;;;;1.45;1.35;;;10.90;68.60;;;;;;4995723;28;20267;-80
2022/05/07 01:50:53;;;;;;;1.70;1.45;;;10.90;68.70;;;;;;5006162;28;20093;-80
2022/05/07 01:53:18;;;;;;;1.63;1.50;;;10.90;68.70;;;;;;4978340;28;20041;-77
2022/05/07 01:55:44;;;;;;;3.42;1.80;;;10.90;68.90;;;;;;4978894;28;20037;-79
2022/05/07 01:58:10;;;;;;;3.50;1.98;;;10.90;69.00;;;;;;5002784;28;20038;-80
2022/05/07 02:00:36;;;;;;;1.50;1.40;;;10.80;68.90;;;;;;4973835;28;20040;-81
2022/05/07 02:03:01;;;;;;;2.72;1.77;;;10.80;69.00;;;;;;4998430;28;20121;-80
2022/05/07 02:05:27;;;;;;;2.00;1.63;;;10.80;69.00;;;;;;4996068;28;20066;-79
2022/05/07 02:07:56;;;;;;;2.78;1.85;;;10.70;69.00;;;;;;4981254;28;20585;-78
2022/05/07 02:10:21;;;;;;;3.20;1.50;;;10.70;69.30;;;;;;4974800;28;20034;-77
2022/05/07 02:12:48;;;;;;;2.00;1.50;;;10.70;69.20;;;;;;4976115;28;20045;-79
2022/05/07 02:15:13;;;;;;;3.03;2.38;;;10.70;69.40;;;;;;4981788;28;20667;-80
2022/05/07 02:17:39;;;;;;;1.55;1.38;;;10.70;69.40;;;;;;4983783;28;20097;-78
2022/05/07 02:20:06;;;;;;;1.80;1.55;;;10.70;69.50;;;;;;5004010;28;20207;-79
2022/05/07 02:22:31;;;;;;;2.00;1.40;;;10.60;69.50;;;;;;4986361;28;20044;-79
2022/05/07 02:24:58;;;;;;;1.38;1.23;;;10.60;69.60;;;;;;5008261;28;20022;-78
2022/05/07 02:27:24;;;;;;;2.00;1.67;;;10.60;69.70;;;;;;5003928;28;20120;-80
2022/05/07 02:29:49;;;;;;;3.92;1.83;;;10.60;69.70;;;;;;4954898;28;20064;-78
2022/05/07 02:32:15;;;;;;;1.83;1.20;;;10.60;69.80;;;;;;4971289;28;20064;-77
2022/05/07 02:34:42;;;;;;;1.83;1.30;;;10.60;69.90;;;;;;4982713;28;20060;-79
2022/05/07 02:37:07;;;;;;;2.58;1.40;;;10.60;69.90;;;;;;5009679;28;20045;-77
2022/05/07 02:39:33;;;;;;;1.95;1.70;;;10.50;69.80;;;;;;4995590;28;20041;-81
2022/05/07 02:44:43;;;;;;;3.17;1.35;;;10.50;69.90;;;;;;5004681;28;20044;-78
2022/05/07 02:47:09;;;;;;;1.75;1.65;;;10.40;70.00;;;;;;4995552;28;20125;-80
2022/05/07 02:49:34;;;;;;;1.73;1.55;;;10.40;70.00;;;;;;4990000;28;20037;-80
2022/05/07 02:52:00;;;;;;;3.22;1.55;;;10.30;70.00;;;;;;4999000;28;20091;-78
2022/05/07 02:54:26;;;;;;;2.22;1.70;;;10.20;70.20;;;;;;4987729;28;20695;-80
2022/05/07 02:56:51;;;;;;;1.38;1.27;;;10.20;70.40;;;;;;5004369;28;20040;-79
2022/05/07 02:59:17;;;;;;;1.85;1.55;;;10.10;70.40;;;;;;5008868;28;20062;-78
2022/05/07 03:01:42;;;;;;;4.82;1.73;;;10.10;70.60;;;;;;4997715;28;20053;-79
2022/05/07 03:04:08;;;;;;;2.58;1.52;;;10.00;70.70;;;;;;5026188;28;20157;-78
2022/05/07 03:06:34;;;;;;;4.18;1.42;;;10.00;70.80;;;;;;5007796;28;20706;-79
2022/05/07 03:09:00;;;;;;;3.40;1.70;;;10.00;70.80;;;;;;5013247;28;20033;-79
2022/05/07 03:11:26;;;;;;;2.63;1.83;;;10.00;70.80;;;;;;5024385;28;20149;-80
2022/05/07 03:13:51;;;;;;;4.90;1.50;;;10.00;70.90;;;;;;4991184;28;20034;-80
2022/05/07 03:16:17;;;;;;;4.38;1.60;;;9.90;70.90;;;;;;5002352;28;20423;-79
2022/05/07 03:18:43;;;;;;;1.80;1.58;;;9.90;71.10;;;;;;5014734;28;20093;-79
2022/05/07 03:21:08;;;;;;;1.95;1.52;;;9.90;71.20;;;;;;5008561;28;20061;-79
2022/05/07 03:23:34;;;;;;;3.28;1.48;;;9.90;71.20;;;;;;4988939;28;20044;-79
2022/05/07 03:25:59;;;;;;;1.60;1.50;;;9.80;71.30;;;;;;5016139;28;20085;-79
2022/05/07 03:28:25;;;;;;;2.22;1.60;;;9.80;71.30;;;;;;5008639;28;20038;-78
2022/05/07 03:30:50;;;;;;;1.85;1.60;;;9.80;71.30;;;;;;5007515;28;20031;-79
2022/05/07 03:33:16;;;;;;;1.52;1.35;;;9.70;71.40;;;;;;5007001;28;20202;-79
2022/05/07 03:35:43;;;;;;;3.28;1.80;;;9.70;71.60;;;;;;5014276;28;20141;-79
2022/05/07 03:38:09;;;;;;;1.83;1.70;;;9.60;72.40;;;;;;4993818;28;20083;-79
2022/05/07 03:40:35;;;;;;;1.85;1.40;;;9.60;71.80;;;;;;4992603;28;20080;-79
2022/05/07 03:43:01;;;;;;;1.55;1.45;;;9.60;71.90;;;;;;4996981;28;20036;-79
2022/05/07 03:45:28;;;;;;;2.35;1.20;;;9.60;71.90;;;;;;4972129;28;20029;-79
2022/05/07 03:47:54;;;;;;;2.33;1.65;;;9.60;71.90;;;;;;5009248;28;20050;-79
2022/05/07 03:50:19;;;;;;;3.08;1.75;;;9.60;71.90;;;;;;5005029;28;20094;-79
2022/05/07 03:55:29;;;;;;;2.75;1.65;;;9.60;72.00;;;;;;5005435;28;20499;-79
2022/05/07 03:57:55;;;;;;;2.75;1.30;;;9.50;71.90;;;;;;4983907;28;20548;-79
2022/05/07 04:00:20;;;;;;;2.83;1.83;;;9.50;72.80;;;;;;4998012;28;20535;-79
2022/05/07 04:02:46;;;;;;;1.77;1.40;;;9.40;72.10;;;;;;5000943;28;20396;-79
2022/05/07 04:05:11;;;;;;;2.25;1.48;;;9.40;72.20;;;;;;4996419;28;20030;-79
2022/05/07 04:07:37;;;;;;;2.20;1.58;;;9.40;72.20;;;;;;5001975;28;20155;-79
2022/05/07 04:10:03;;;;;;;3.53;2.00;;;9.40;72.30;;;;;;4988393;28;20030;-79
2022/05/07 04:12:29;;;;;;;1.60;1.48;;;9.40;72.40;;;;;;4997688;28;20105;-79
2022/05/07 04:15:01;;;;;;;3.10;1.50;;;9.30;72.30;;;;;;4995373;28;20507;-78
2022/05/07 04:17:27;;;;;;;1.42;1.33;;;9.30;72.50;;;;;;4970375;28;20435;-79
2022/05/07 04:19:53;;;;;;;1.67;1.58;;;9.30;72.40;;;;;;5008748;28;20030;-79
2022/05/07 04:22:18;;;;;;;2.50;1.60;;;9.30;72.60;;;;;;5004915;28;20033;-79
2022/05/07 04:24:44;;;;;;;1.92;1.60;;;9.30;72.60;;;;;;4998858;28;20045;-79
2022/05/07 04:27:10;;;;;;;1.95;1.50;;;9.30;72.70;;;;;;5003271;28;20157;-79
2022/05/07 04:29:35;;;;;;;3.60;1.45;;;9.30;72.80;;;;;;5018837;28;20037;-80
2022/05/07 04:32:01;;;;;;;3.08;1.58;;;9.20;72.70;;;;;;5017001;28;20125;-79
2022/05/07 04:34:28;;;;;;;3.72;1.83;;;9.30;72.90;;;;;;5008970;28;20080;-79
2022/05/07 04:36:54;;;;;;;2.10;1.50;;;9.30;72.90;;;;;;4996892;28;20045;-79
2022/05/07 04:39:20;;;;;;;1.92;1.73;;;9.30;73.00;;;;;;5013284;28;20042;-79
2022/05/07 04:41:46;;;;;;;2.22;1.60;;;9.30;73.00;;;;;;5014686;28;20048;-79
2022/05/07 04:44:12;;;;;;;1.75;1.30;;;9.30;73.10;;;;;;4975253;28;20034;-79
2022/05/07 04:46:37;;;;;;;1.85;1.40;;;9.40;73.20;;;;;;5002832;28;20041;-79
2022/05/07 04:49:05;;;;;;;2.20;1.77;;;9.40;73.20;;;;;;4982598;28;20030;-79
2022/05/07 04:51:31;;;;;;;2.53;1.63;;;9.40;73.30;;;;;;4992760;28;20042;-79
2022/05/07 04:53:56;;;;;;;1.92;1.55;;;9.40;73.30;;;;;;4978925;28;20026;-78
2022/05/07 04:56:24;;;;;;;6.22;1.77;;;9.40;73.40;;;;;;5002333;28;20057;-79
2022/05/07 04:58:50;;;;;;;2.08;1.58;;;9.40;73.50;;;;;;4983810;28;20026;-79
2022/05/07 05:01:16;;;;;;;2.13;1.92;;;9.40;73.50;;;;;;4956842;28;20627;-79
2022/05/07 05:03:41;;;;;;;3.05;2.10;;;9.50;73.60;;;;;;5024787;28;20053;-79
2022/05/07 05:06:07;;;;;;;2.33;2.03;;;9.50;73.60;;;;;;4989390;28;20671;-78
2022/05/07 05:08:32;;;;;;;6.15;2.05;;;9.50;73.60;;;;;;4983643;28;20569;-79
2022/05/07 05:10:58;;;;;;;2.15;1.63;;;9.50;73.70;;;;;;5002936;28;20030;-79
2022/05/07 05:13:23;;;;;;;2.25;1.65;;;9.60;73.70;;;;;;4987018;28;20043;-79
2022/05/07 05:15:50;;;;;;;4.53;1.60;;;9.60;73.70;;;;;;5001681;28;20037;-80
2022/05/07 05:18:16;;;;;;;1.92;1.50;;;9.60;73.90;;;;;;5004880;28;20100;-78
2022/05/07 05:20:41;;;;;;;2.08;1.83;;;9.60;73.90;;;;;;4985253;28;20029;-78
2022/05/07 05:23:07;;;;;;;3.35;2.05;;;9.60;73.90;;;;;;4973761;28;20053;-80
2022/05/07 05:25:33;;;;;;;2.67;1.75;;;9.70;74.10;;;;;;4998857;28;20045;-80
2022/05/07 05:27:58;;;;;;;2.45;1.98;;;9.70;74.10;;;;;;4989866;28;20030;-79
2022/05/07 05:30:24;;;;;;;2.47;2.13;;;9.70;74.20;;;;;;4998133;28;20146;-79
2022/05/07 05:32:49;;;;;;;3.55;2.20;;;9.80;74.40;;;;;;4989037;28;20465;-80
2022/05/07 05:35:15;;;;;;;3.08;2.58;;;9.80;74.40;;;;;;4986069;28;20069;-81
2022/05/07 05:37:41;;;;;;;1.90;1.75;;;9.80;74.50;;;;;;5015696;28;20408;-81
2022/05/07 05:40:07;;;;;;;1.85;1.70;;;9.90;74.60;;;;;;5019395;28;20034;-79
2022/05/07 05:42:32;;;;;;;4.90;2.30;;;9.90;74.60;;;;;;4999768;28;20046;-79
2022/05/07 05:44:58;;;;;;;8.13;3.95;;;10.00;74.70;;;;;;5002572;28;20518;-78
2022/05/07 05:47:24;;;;;;;9.20;3.63;;;10.00;75.40;;;;;;5014070;28;20081;-76
2022/05/07 05:49:50;;;;;;;5.80;3.10;;;10.10;74.60;;;;;;5001059;28;20030;-79
2022/05/07 05:52:16;;;;;;;3.45;2.88;;;10.10;74.50;;;;;;4998045;28;20071;-82
2022/05/07 05:54:41;;;;;;;3.20;2.25;;;10.20;74.50;;;;;;4996151;28;20189;-79
2022/05/07 05:57:07;;;;;;;5.97;2.65;;;10.20;74.40;;;;;;4999788;28;20037;-79
2022/05/07 05:59:32;;;;;;;6.00;2.30;;;10.30;74.50;;;;;;4998018;28;20037;-80
2022/05/07 06:01:58;;;;;;;3.20;1.90;;;10.30;74.40;;;;;;4999583;28;20030;-81
2022/05/07 06:04:23;;;;;;;2.65;2.22;;;10.40;74.40;;;;;;5000987;28;20038;-79
2022/05/07 06:06:49;;;;;;;5.38;2.50;;;10.50;74.20;;;;;;4998175;28;20030;-80
2022/05/07 06:09:15;;;;;;;3.30;2.22;;;10.60;74.20;;;;;;4983289;28;20034;-80
2022/05/07 06:11:41;;;;;;;4.80;2.35;;;10.60;74.00;;;;;;5004635;28;20083;-82
2022/05/07 06:14:06;;;;;;;6.05;2.40;;;10.70;74.70;;;;;;4988272;28;20064;-82
2022/05/07 06:16:32;;;;;;;2.83;2.38;;;10.80;73.90;;;;;;4989690;28;20274;-79
2022/05/07 06:18:57;;;;;;;3.03;2.38;;;10.90;73.90;;;;;;4999122;28;20041;-78
2022/05/07 06:21:23;;;;;;;3.28;2.20;;;11.00;73.80;;;;;;5030473;28;20126;-78
2022/05/07 06:23:48;;;;;;;3.25;2.00;;;11.10;73.60;;;;;;5011873;28;20112;-80
2022/05/07 06:29:01;;;;;;;4.80;2.50;;;11.30;73.60;;;;;;5004362;28;20042;-80
2022/05/07 06:31:26;;;;;;;4.85;2.25;;;11.40;73.50;;;;;;4985944;28;20041;-79
2022/05/07 06:33:52;;;;;;;5.15;2.40;;;11.50;73.40;;;;;;4968800;28;20030;-80
2022/05/07 06:36:17;;;;;;;6.30;2.10;;;11.60;73.30;;;;;;5004230;28;20033;-79
2022/05/07 06:38:43;;;;;;;3.65;2.30;;;11.80;73.20;;;;;;4968180;28;20522;-80
2022/05/07 06:41:08;;;;;;;9.75;2.53;;;11.90;73.10;;;;;;5004243;28;20565;-81
2022/05/07 06:43:34;;;;;;;3.25;2.30;;;12.00;72.90;;;;;;4977032;28;20049;-80
2022/05/07 06:46:00;;;;;;;2.42;1.88;;;12.10;72.70;;;;;;4985702;28;20096;-80
2022/05/07 06:48:27;;;;;;;4.93;2.58;;;12.30;73.30;;;;;;4991514;28;20038;-79
2022/05/07 06:50:53;;;;;;;2.92;2.30;;;12.40;72.30;;;;;;5018645;28;20449;-80
2022/05/07 06:53:19;;;;;;;3.75;2.10;;;12.60;72.20;;;;;;5000266;28;20055;-79
2022/05/07 06:55:58;;;;;;;3.05;2.17;;;12.70;72.00;;;;;;4970979;28;20045;-81
2022/05/07 06:58:34;;;;;;;3.30;1.73;;;12.80;71.80;;;;;;4988846;28;20044;-79
2022/05/07 07:01:01;;;;;;;2.92;1.60;;;13.00;71.60;;;;;;4982155;28;20061;-80
2022/05/07 07:03:27;;;;;;;2.50;1.88;;;13.10;71.40;;;;;;4994203;28;20560;-81
2022/05/07 07:05:53;;;;;;;2.25;1.90;;;13.30;71.30;;;;;;4980925;28;20483;-82
2022/05/07 07:08:19;;;;;;;2.65;2.00;;;13.50;71.10;;;;;;4984763;28;20033;-84
2022/05/07 07:10:45;;;;;;;2.70;2.25;;;13.60;70.90;;;;;;5019540;28;20454;-79
2022/05/07 07:13:11;;;;;;;3.25;1.73;;;13.80;70.90;;;;;;5006908;28;20037;-80
2022/05/07 07:15:39;;;;;;;1.95;1.75;;;13.90;70.60;;;;;;4991432;28;20533;-81
2022/05/07 07:18:11;;;;;;;2.10;1.73;;;14.10;70.40;;;;;;4975489;28;20466;-85
2022/05/07 07:20:40;;;;;;;3.25;1.80;;;14.30;70.10;;;;;;5009110;28;20029;-79
2022/05/07 07:23:06;;;;;;;2.20;1.98;;;14.50;69.60;;;;;;5001940;28;20164;-79
2022/05/07 07:25:31;;;;;;;4.28;1.85;;;14.70;69.40;;;;;;5002794;28;20034;-79
2022/05/07 07:27:57;;;;;;;2.47;1.95;;;14.80;69.00;;;;;;5008703;28;20030;-80
2022/05/07 07:30:22;;;;;;;4.13;2.20;;;15.00;68.70;;;;;;4997523;28;20041;-80
2022/05/07 07:32:48;;;;;;;2.55;1.98;;;15.20;68.40;;;;;;5011887;28;20938;-79
2022/05/07 07:35:14;;;;;;;2.13;1.92;;;15.50;68.20;;;;;;5012367;28;20056;-79
2022/05/07 07:37:39;;;;;;;2.50;1.90;;;15.70;67.80;;;;;;4998112;28;20092;-81
2022/05/07 07:40:05;;;;;;;4.15;2.40;;;15.80;67.40;;;;;;5008333;28;20037;-79
2022/05/07 07:42:31;;;;;;;2.65;1.92;;;16.10;67.00;;;;;;5013765;28;20034;-79
2022/05/07 07:50:27;;;;;;;3.53;2.15;;;16.60;65.90;;;;;;5005679;28;20045;-80
2022/05/07 07:52:53;;;;;;;2.72;1.98;;;16.80;65.50;;;;;;5003025;28;20160;-85
2022/05/07 07:55:19;;;;;;;4.47;2.03;;;17.00;65.10;;;;;;5015431;28;20034;-82
2022/05/07 07:57:45;;;;;;;4.65;2.00;;;17.20;64.80;;;;;;5010808;28;20033;-80
2022/05/07 08:00:11;;;;;;;2.42;1.75;;;17.40;64.40;;;;;;5010827;28;20037;-83
2022/05/07 08:03:04;;;;;;;4.70;1.75;;;17.70;64.10;;;;;;4971111;28;20033;-82
2022/05/07 08:05:31;;;;;;;2.25;1.85;;;17.90;63.50;;;;;;5011202;28;20102;-80
2022/05/07 08:13:26;;;;;;;3.22;1.73;;;18.60;62.30;;;;;;4999593;28;20053;-80
2022/05/07 08:15:52;;;;;;;3.25;1.30;;;18.80;61.80;;;;;;4996067;28;20064;-80
2022/05/07 08:18:19;;;;;;;2.25;1.40;;;19.00;61.30;;;;;;4997842;28;20053;-85
2022/05/07 08:20:44;;;;;;;3.55;1.80;;;19.20;60.90;;;;;;5011336;28;20053;-80
2022/05/07 08:23:10;;;;;;;3.28;1.48;;;19.40;60.60;;;;;;5004694;28;20054;-82
2022/05/07 08:25:36;;;;;;;2.60;1.70;;;19.60;60.10;;;;;;4990306;28;20487;-80
2022/05/07 08:28:02;;;;;;;3.47;1.70;;;19.80;59.70;;;;;;5003110;28;20076;-83
2022/05/07 08:30:28;;;;;;;2.15;1.50;;;20.00;59.40;;;;;;5005652;28;20037;-82
2022/05/07 08:32:53;;;;;;;6.65;1.77;;;20.30;59.30;;;;;;4997326;28;20025;-83
2022/05/07 08:35:19;;;;;;;2.65;1.77;;;20.50;58.70;;;;;;5010703;28;20042;-81
2022/05/07 08:37:45;;;;;;;5.05;1.73;;;20.70;58.30;;;;;;4992493;28;20095;-80
2022/05/07 08:40:14;;;;;;;2.03;1.80;;;21.00;57.90;;;;;;5002517;28;20034;-79
2022/05/07 08:42:40;;;;;;;3.22;1.52;;;21.20;57.30;;;;;;4988233;28;20053;-80
2022/05/07 08:45:06;;;;;;;1.75;1.30;;;21.40;56.90;;;;;;4970213;28;20038;-81
2022/05/07 08:47:31;;;;;;;4.70;1.55;;;21.60;56.50;;;;;;4996777;28;20052;-80
2022/05/07 08:49:57;;;;;;;4.13;1.40;;;21.80;56.00;;;;;;4958549;28;20104;-80
2022/05/07 08:52:23;;;;;;;1.38;1.27;;;22.00;55.50;;;;;;5001177;28;20461;-81
2022/05/07 08:54:48;;;;;;;2.17;1.40;;;22.30;55.00;;;;;;4998609;28;23554;-81
2022/05/07 08:57:14;;;;;;;2.78;1.35;;;22.50;54.70;;;;;;4999241;28;20061;-81
2022/05/07 08:59:41;;;;;;;1.35;1.23;;;22.70;54.10;;;;;;4995491;28;20037;-83
2022/05/07 09:02:06;;;;;;;1.55;1.05;;;22.90;53.60;;;;;;4980436;28;20396;-80
2022/05/07 09:04:32;;;;;;;1.83;1.08;;;23.10;53.20;;;;;;4999541;28;20049;-83
2022/05/07 09:06:58;;;;;;;1.33;1.10;;;23.30;52.70;;;;;;5009351;28;20038;-82
2022/05/07 09:09:23;;;;;;;3.25;1.20;;;23.50;52.10;;;;;;5006690;28;20064;-82
2022/05/07 09:11:49;;;;;;;2.00;1.38;;;23.70;51.70;;;;;;4990963;28;20403;-82
2022/05/07 09:14:18;;;;;;;2.20;1.40;;;23.80;51.30;;;;;;4988488;28;20171;-84
2022/05/07 09:16:50;;;;;;;2.50;0.90;;;24.10;51.00;;;;;;4992185;28;20117;-82
2022/05/07 09:19:23;;;;;;;1.27;1.17;;;24.10;50.10;;;;;;4988128;28;20035;-83
2022/05/07 09:21:50;;;;;;;1.83;0.90;;;24.10;49.50;;;;;;5000984;28;20032;-83
2022/05/07 09:24:16;;;;;;;1.52;0.95;;;24.20;49.40;;;;;;4974809;28;20053;-82
2022/05/07 09:26:44;;;;;;;3.65;1.25;;;24.40;49.10;;;;;;4976638;28;20501;-83
2022/05/07 09:29:11;;;;;;;3.22;1.00;;;24.60;48.70;;;;;;4996054;28;20038;-83
2022/05/07 09:31:37;;;;;;;2.10;1.55;;;24.80;48.10;;;;;;5000275;28;20067;-82
2022/05/07 09:36:57;;;;;;;2.55;1.08;;;25.10;46.50;;;;;;5004468;28;20080;-82
2022/05/07 09:39:29;;;;;;;2.20;0.80;;;25.20;46.50;;;;;;5025633;28;20034;-82
2022/05/07 09:41:55;;;;;;;5.45;1.20;;;25.40;46.00;;;;;;5009297;28;20033;-81
2022/05/07 09:44:24;;;;;;;1.30;1.05;;;25.50;45.40;;;;;;5005051;28;20038;-81
2022/05/07 09:46:49;;;;;;;2.25;1.27;;;25.70;45.00;;;;;;5010534;28;20033;-82
2022/05/07 09:49:15;;;;;;;1.48;0.90;;;25.80;44.50;;;;;;5003721;28;20034;-83
2022/05/07 09:51:40;;;;;;;2.05;0.93;;;26.00;44.20;;;;;;4987843;28;20033;-82
2022/05/07 09:59:34;;;;;;;3.53;1.30;;;26.60;43.70;;;;;;4993611;28;20562;-81
2022/05/07 10:02:19;;;;;;;4.78;1.20;;;26.80;43.50;;;;;;4987570;28;20038;-82
2022/05/07 10:04:47;;;;;;;1.65;0.80;;;27.00;42.00;;;;;;5008178;28;20498;-83
2022/05/07 10:07:51;;;;;;;2.50;1.02;;;27.20;42.70;;;;;;5004892;28;20034;-81
2022/05/07 10:10:28;;;;;;;2.08;1.55;;;27.40;41.50;;;;;;5003382;28;20834;-80
2022/05/07 10:12:55;;;;;;;2.83;1.10;;;27.40;41.80;;;;;;5003124;28;20489;-83
2022/05/07 10:15:23;;;;;;;1.10;0.80;;;27.50;42.00;;;;;;5010267;28;20045;-84
2022/05/07 10:18:01;;;;;;;2.17;1.27;;;27.60;42.00;;;;;;4986113;28;20069;-82
2022/05/07 10:20:37;;;;;;;1.60;0.95;;;27.70;40.90;;;;;;5005385;28;20043;-84
2022/05/07 10:23:02;;;;;;;1.40;1.20;;;27.80;40.60;;;;;;4982341;28;20038;-82
2022/05/07 10:25:28;;;;;;;2.50;1.00;;;27.90;41.00;;;;;;5007044;28;20033;-81
2022/05/07 10:27:54;;;;;;;1.35;1.05;;;28.00;41.00;;;;;;5010177;28;20026;-82
2022/05/07 10:30:21;;;;;;;1.00;0.90;;;28.10;40.90;;;;;;5016771;28;20125;-82
2022/05/07 10:32:48;;;;;;;1.80;1.05;;;28.20;40.80;;;;;;4964388;28;20034;-82
2022/05/07 10:35:14;;;;;;;3.50;1.02;;;28.30;40.60;;;;;;5012018;28;20456;-82
2022/05/07 10:37:43;;;;;;;0.93;0.90;;;28.30;40.40;;;;;;5015030;28;20030;-81
2022/05/07 10:40:12;;;;;;;1.38;1.10;;;28.30;40.20;;;;;;4993806;28;20589;-80
2022/05/07 10:42:39;;;;;;;2.10;0.80;;;28.30;40.30;;;;;;4989449;28;20029;-82
2022/05/07 10:45:27;;;;;;;2.90;0.70;;;28.40;40.40;;;;;;5008945;28;20030;-81
2022/05/07 10:47:57;;;;;;;1.98;1.00;;;28.40;40.30;;;;;;4987862;28;20161;-82
2022/05/07 10:50:23;;;;;;;1.52;1.00;;;28.40;40.10;;;;;;4994188;28;20615;-84
2022/05/07 10:52:55;;;;;;;1.98;1.20;;;28.40;40.10;;;;;;4996841;28;20546;-80
2022/05/07 10:55:24;;;;;;;0.77;0.75;;;28.40;39.10;;;;;;4978921;28;20031;-81
2022/05/07 10:57:51;;;;;;;1.23;0.90;;;28.50;39.30;;;;;;4995578;28;20053;-80
2022/05/07 11:00:17;;;;;;;2.05;1.15;;;28.50;39.30;;;;;;5010580;28;20058;-81
2022/05/07 11:02:43;;;;;;;2.60;1.33;;;28.50;39.20;;;;;;5002499;28;20032;-82
2022/05/07 11:05:09;;;;;;;2.22;1.00;;;28.50;39.10;;;;;;4967999;28;20029;-83
2022/05/07 11:07:35;;;;;;;2.55;1.20;;;28.40;38.80;;;;;;4995617;28;20038;-81
2022/05/07 11:10:02;;;;;;;1.58;0.90;;;28.40;38.70;;;;;;4989418;28;20042;-81
2022/05/07 11:12:27;;;;;;;1.85;0.95;;;28.50;38.80;;;;;;4987278;28;20076;-80
2022/05/07 11:14:54;;;;;;;2.35;0.70;;;28.70;38.60;;;;;;5003782;28;20041;-84
2022/05/07 11:17:30;;;;;;;5.15;1.20;;;28.80;38.20;;;;;;4998318;28;20041;-80
2022/05/07 11:19:57;;;;;;;1.45;1.10;;;29.00;37.10;;;;;;5004898;28;20391;-80
2022/05/07 11:22:30;;;;;;;2.42;1.13;;;28.90;37.60;;;;;;5006529;28;20026;-80
2022/05/07 11:24:57;;;;;;;3.47;1.10;;;28.90;37.50;;;;;;4999128;28;20057;-81
2022/05/07 11:27:25;;;;;;;23.45;1.33;;;28.90;37.50;;;;;;5004381;28;20117;-81
2022/05/07 11:29:52;;;;;;;2.65;0.98;;;28.90;37.30;;;;;;4990265;28;20029;-82
2022/05/07 11:32:18;;;;;;;3.90;1.20;;;29.00;37.40;;;;;;4983628;28;20022;-81
2022/05/07 11:34:43;;;;;;;1.40;0.90;;;29.10;36.90;;;;;;5010101;28;20045;-83
2022/05/07 11:37:22;;;;;;;1.75;1.35;;;29.20;36.70;;;;;;5011798;28;20037;-79
2022/05/07 11:39:58;;;;;;;1.85;0.95;;;29.30;35.80;;;;;;4993129;28;20034;-84
2022/05/07 11:42:30;;;;;;;2.15;0.90;;;29.50;35.80;;;;;;4996283;28;20033;-80
2022/05/07 11:47:55;;;;;;;0.70;0.70;;;29.70;36.20;;;;;;4997578;28;20111;-81
2022/05/07 11:50:25;;;;;;;1.77;0.80;;;29.90;35.50;;;;;;4993497;28;20056;-80
2022/05/07 11:52:51;;;;;;;1.95;0.80;;;30.00;35.90;;;;;;5002186;28;20032;-81
2022/05/07 11:55:22;;;;;;;2.35;1.10;;;30.10;35.50;;;;;;4977408;28;20040;-80
2022/05/07 11:57:48;;;;;;;1.45;0.93;;;30.10;35.30;;;;;;4979653;28;20034;-81
2022/05/07 12:00:15;;;;;;;4.00;0.60;;;30.20;35.20;;;;;;5011194;28;20062;-80
2022/05/07 12:02:54;;;;;;;1.52;0.80;;;30.30;35.00;;;;;;5002157;28;20030;-80
2022/05/07 12:05:19;;;;;;;3.35;0.90;;;30.40;34.50;;;;;;5002779;28;20050;-84
2022/05/07 12:07:47;;;;;;;2.03;0.90;;;30.50;34.80;;;;;;4983610;28;20041;-81
2022/05/07 12:10:12;;;;;;;2.42;1.30;;;30.60;34.60;;;;;;4994535;28;20163;-83
2022/05/07 12:12:38;;;;;;;6.55;1.50;;;30.60;34.10;;;;;;4981525;28;20042;-82
2022/05/07 12:15:04;;;;;;;1.35;0.95;;;30.50;34.00;;;;;;4981668;28;20041;-82
2022/05/07 12:20:14;;;;;;;0.90;0.80;;;30.70;33.90;;;;;;5003416;28;20045;-81
2022/05/07 12:30:52;;;;;;;1.35;0.80;;;31.10;33.30;;;;;;5006073;28;20111;-81
2022/05/07 12:33:18;;;;;;;0.85;0.65;;;31.10;33.30;;;;;;5020047;28;20621;-82
2022/05/07 12:35:43;;;;;;;1.65;1.20;;;31.20;33.20;;;;;;5017654;28;20479;-81
2022/05/07 12:38:10;;;;;;;1.58;0.80;;;31.20;33.30;;;;;;5007954;28;20554;-80
2022/05/07 12:40:36;;;;;;;2.67;1.00;;;31.20;32.90;;;;;;5015612;28;20144;-81
2022/05/07 12:43:01;;;;;;;1.38;0.93;;;31.20;32.90;;;;;;5017035;28;20124;-81
2022/05/07 12:45:27;;;;;;;1.88;0.90;;;31.20;32.80;;;;;;5006430;28;20576;-81
2022/05/07 12:47:53;;;;;;;1.85;0.82;;;31.10;32.60;;;;;;4982946;28;20067;-81
2022/05/07 12:50:19;;;;;;;1.50;0.98;;;31.10;32.80;;;;;;5017964;28;20034;-81
2022/05/07 12:52:44;;;;;;;2.95;0.90;;;31.00;32.80;;;;;;5012621;28;20029;-81
2022/05/07 12:55:10;;;;;;;2.25;0.95;;;30.90;32.70;;;;;;5013111;28;20036;-81
2022/05/07 12:57:35;;;;;;;1.95;0.85;;;31.00;32.80;;;;;;5002104;28;20041;-81
2022/05/07 13:00:01;;;;;;;1.65;1.05;;;31.10;32.80;;;;;;5008902;28;20033;-81
2022/05/07 13:02:26;;;;;;;3.10;1.20;;;31.20;32.90;;;;;;4998553;28;20547;-81
2022/05/07 13:04:52;;;;;;;1.25;0.90;;;31.20;32.50;;;;;;5003650;28;20389;-80
2022/05/07 13:07:17;;;;;;;1.17;0.63;;;31.40;32.40;;;;;;5010800;28;20038;-81
2022/05/07 13:09:43;;;;;;;2.33;0.75;;;31.40;32.00;;;;;;4999102;28;20034;-80
2022/05/07 13:12:13;;;;;;;2.92;0.80;;;31.50;31.80;;;;;;4998723;28;20061;-80
2022/05/07 13:14:39;;;;;;;1.33;0.80;;;31.50;31.60;;;;;;4989644;28;20546;-81
2022/05/07 13:17:06;;;;;;;1.15;0.80;;;31.40;31.60;;;;;;5009471;28;20145;-79
2022/05/07 13:19:31;;;;;;;3.17;1.10;;;31.30;32.30;;;;;;4966313;28;24727;-80
2022/05/07 13:21:57;;;;;;;3.35;0.85;;;31.30;31.60;;;;;;4997254;28;20085;-81
2022/05/07 13:24:23;;;;;;;2.00;0.80;;;31.20;31.60;;;;;;4979497;28;20057;-80
2022/05/07 13:26:48;;;;;;;0.75;0.70;;;31.10;31.50;;;;;;4983705;28;20188;-80